Terminal Aerodrome Forecast
Issued by NWS Austin/San Antonio, TX

Home | Current Version | Previous Version | Text Only | Print | Product List | Glossary On
Versions: 1 2 3 4 5 6 7 8 9 10 11 12 13 14 15 16 17 18 19 20 21 22
000
FTUS44 KEWX 281700
TAFSAT
TAF
KSAT 281720Z 2818/0124 03008KT 6SM BR OVC008
      TEMPO 2818/2822 3SM -DZ BR OVC007
     FM010000 06005KT 1SM BR OVC004
     FM010900 VRB03KT 1/2SM FG OVC002
     FM011600 01003KT 1SM BR OVC003
     FM011900 03005KT 5SM BR OVC005=

USA.gov is the U.S. government's official web portal to all federal, state and local government web resources and services.